createdAt,value
2019-01-08T00:02:02.161Z,34.80
2019-01-08T00:04:29.784Z,34.90
2019-01-08T00:06:57.481Z,34.90
2019-01-08T00:09:25.090Z,34.80
2019-01-08T00:11:52.684Z,35.00
2019-01-08T00:14:20.362Z,34.90
2019-01-08T00:16:48.025Z,34.90
2019-01-08T00:19:15.630Z,35.10
2019-01-08T00:21:43.304Z,35.00
2019-01-08T00:24:10.940Z,35.00
2019-01-08T00:26:38.543Z,34.90
2019-01-08T00:29:06.203Z,35.10
2019-01-08T00:31:33.824Z,35.00
2019-01-08T00:34:01.439Z,34.90
2019-01-08T00:36:29.181Z,34.90
2019-01-08T00:38:56.849Z,35.00
2019-01-08T00:41:24.516Z,34.90
2019-01-08T00:43:52.174Z,34.90
2019-01-08T00:46:19.849Z,34.80
2019-01-08T00:48:47.502Z,34.80
2019-01-08T00:51:15.122Z,34.90
2019-01-08T00:53:42.767Z,34.80
2019-01-08T00:56:10.452Z,34.70
2019-01-08T00:58:41.168Z,34.70
2019-01-08T01:01:08.795Z,34.70
2019-01-08T01:03:36.540Z,34.80
2019-01-08T01:06:04.216Z,34.60
2019-01-08T01:08:31.820Z,34.80
2019-01-08T01:10:59.565Z,34.70
2019-01-08T01:13:27.242Z,34.80
2019-01-08T01:15:54.924Z,34.80
2019-01-08T01:18:22.638Z,34.80
2019-01-08T01:20:50.228Z,34.90
2019-01-08T01:23:17.833Z,34.90
2019-01-08T01:25:45.506Z,34.90
2019-01-08T01:28:13.084Z,34.90
2019-01-08T01:30:40.729Z,34.70
2019-01-08T01:33:08.336Z,34.70
2019-01-08T01:35:36.010Z,34.60
2019-01-08T01:38:03.718Z,34.50
2019-01-08T01:40:31.423Z,34.60
2019-01-08T01:42:59.047Z,34.40
2019-01-08T01:45:26.724Z,34.60
2019-01-08T01:47:54.404Z,34.60
2019-01-08T01:50:21.985Z,34.50
2019-01-08T01:52:49.576Z,34.40
2019-01-08T01:55:17.210Z,34.40
2019-01-08T01:57:44.876Z,34.20
2019-01-08T02:00:12.536Z,34.50
2019-01-08T02:02:40.260Z,35.00
2019-01-08T02:05:07.977Z,34.40
2019-01-08T02:07:35.572Z,34.30
2019-01-08T02:10:03.810Z,33.90
2019-01-08T02:12:31.456Z,34.10
2019-01-08T02:14:59.129Z,34.00
2019-01-08T02:17:26.845Z,33.70
2019-01-08T02:19:54.548Z,33.70
2019-01-08T02:22:22.196Z,33.60
2019-01-08T02:24:49.787Z,33.70
2019-01-08T02:27:17.434Z,33.70
2019-01-08T02:29:45.046Z,33.70
2019-01-08T02:32:12.680Z,33.70
2019-01-08T02:34:40.296Z,33.60
2019-01-08T02:37:07.956Z,33.70
2019-01-08T02:39:35.687Z,33.70
2019-01-08T02:42:03.409Z,33.70
2019-01-08T02:44:31.225Z,33.70
2019-01-08T02:46:58.888Z,33.70
2019-01-08T02:49:26.608Z,33.70
2019-01-08T02:51:54.266Z,33.70
2019-01-08T02:54:24.063Z,33.70
2019-01-08T02:56:51.781Z,33.70
2019-01-08T02:59:25.109Z,33.70
2019-01-08T03:01:48.764Z,33.70
2019-01-08T03:04:16.435Z,33.70
2019-01-08T03:06:44.070Z,33.70
2019-01-08T03:09:11.734Z,33.70
2019-01-08T03:11:39.396Z,33.70
2019-01-08T03:14:06.989Z,33.70
2019-01-08T03:16:34.616Z,33.70
2019-01-08T03:19:02.262Z,33.70
2019-01-08T03:21:29.915Z,33.70
2019-01-08T03:23:57.720Z,33.60
2019-01-08T03:26:25.313Z,33.70
2019-01-08T03:28:52.906Z,33.70
2019-01-08T03:31:20.573Z,33.70
2019-01-08T03:33:48.166Z,33.70
2019-01-08T03:36:15.780Z,33.60
2019-01-08T03:38:43.512Z,33.70
2019-01-08T03:41:11.145Z,33.70
2019-01-08T03:43:38.730Z,33.70
2019-01-08T03:46:06.398Z,33.60
2019-01-08T03:48:34.073Z,33.60
2019-01-08T03:51:01.688Z,33.60
2019-01-08T03:53:29.417Z,33.70
2019-01-08T03:55:57.065Z,33.70
2019-01-08T03:58:24.746Z,33.70
2019-01-08T04:00:52.359Z,33.70
2019-01-08T04:03:20.030Z,33.60
2019-01-08T04:05:47.659Z,33.70
2019-01-08T04:08:15.258Z,33.60
2019-01-08T04:10:42.869Z,33.60
2019-01-08T04:13:10.519Z,33.70
2019-01-08T04:15:38.154Z,33.60
2019-01-08T04:18:05.802Z,33.70
2019-01-08T04:20:33.490Z,33.60
2019-01-08T04:23:01.088Z,33.70
2019-01-08T04:25:28.728Z,33.70
2019-01-08T04:27:56.369Z,33.70
2019-01-08T04:30:23.989Z,33.70
2019-01-08T04:32:51.619Z,33.70
2019-01-08T04:35:19.226Z,33.60
2019-01-08T04:37:46.825Z,33.70
2019-01-08T04:40:14.480Z,33.70
2019-01-08T04:42:42.164Z,33.70
2019-01-08T04:45:09.769Z,33.70
2019-01-08T04:47:37.421Z,33.70
2019-01-08T04:50:06.068Z,33.70
2019-01-08T04:52:33.665Z,33.70
2019-01-08T04:55:01.320Z,33.70
2019-01-08T04:57:28.933Z,33.70
2019-01-08T04:59:59.053Z,33.70
2019-01-08T05:02:25.896Z,33.60
2019-01-08T05:04:53.476Z,33.70
2019-01-08T05:07:21.080Z,33.70
2019-01-08T05:09:48.720Z,33.70
2019-01-08T05:12:16.305Z,33.60
2019-01-08T05:14:43.922Z,33.70
2019-01-08T05:17:11.617Z,33.70
2019-01-08T05:19:39.221Z,33.70
2019-01-08T05:22:06.855Z,33.60
2019-01-08T05:24:34.455Z,33.60
2019-01-08T05:27:02.135Z,33.60
2019-01-08T05:29:29.794Z,33.60
2019-01-08T05:31:57.460Z,33.60
2019-01-08T05:34:25.062Z,33.60
2019-01-08T05:36:52.783Z,33.60
2019-01-08T05:39:20.471Z,33.70
2019-01-08T05:41:48.177Z,33.60
2019-01-08T05:44:15.805Z,33.60
2019-01-08T05:46:43.423Z,33.60
2019-01-08T05:49:11.050Z,33.60
2019-01-08T05:51:38.753Z,33.60
2019-01-08T05:54:06.371Z,33.60
2019-01-08T05:56:34.037Z,33.60
2019-01-08T05:59:01.619Z,33.60
2019-01-08T06:01:29.199Z,33.60
2019-01-08T06:03:56.829Z,33.60
2019-01-08T06:06:24.431Z,33.60
2019-01-08T06:08:53.230Z,33.60
2019-01-08T06:11:21.065Z,33.60
2019-01-08T06:13:48.723Z,33.60
2019-01-08T06:16:16.317Z,33.30
2019-01-08T06:18:43.981Z,33.60
2019-01-08T06:21:11.657Z,33.60
2019-01-08T06:23:39.317Z,33.60
2019-01-08T06:26:07.075Z,33.60
2019-01-08T06:28:34.701Z,33.60
2019-01-08T06:31:02.334Z,33.60
2019-01-08T06:33:30.130Z,33.60
2019-01-08T06:35:57.723Z,33.60
2019-01-08T06:38:25.612Z,33.60
2019-01-08T06:40:57.804Z,34.50
2019-01-08T06:43:22.678Z,34.60
2019-01-08T06:45:50.398Z,34.30
2019-01-08T06:48:18.167Z,33.90
2019-01-08T06:50:45.825Z,33.80
2019-01-08T06:53:13.462Z,33.80
2019-01-08T06:55:41.266Z,33.90
2019-01-08T06:58:09.012Z,33.80
2019-01-08T07:00:36.655Z,33.60
2019-01-08T07:03:04.349Z,33.30
2019-01-08T07:05:31.994Z,33.20
2019-01-08T07:07:59.646Z,32.90
2019-01-08T07:10:27.313Z,33.30
2019-01-08T07:12:55.006Z,33.90
2019-01-08T07:15:22.705Z,33.80
2019-01-08T07:17:50.388Z,33.80
2019-01-08T07:20:18.080Z,33.80
2019-01-08T07:22:45.710Z,33.80
2019-01-08T07:25:13.437Z,33.70
2019-01-08T07:27:41.039Z,33.70
2019-01-08T07:30:08.702Z,33.60
2019-01-08T07:32:36.357Z,33.70
2019-01-08T07:35:04.229Z,33.60
2019-01-08T07:37:31.880Z,33.70
2019-01-08T07:39:59.657Z,33.60
2019-01-08T07:42:27.344Z,33.60
2019-01-08T07:44:54.998Z,33.60
2019-01-08T07:47:22.726Z,33.70
2019-01-08T07:49:50.407Z,33.60
2019-01-08T07:52:18.055Z,33.70
2019-01-08T07:54:45.726Z,33.70
2019-01-08T07:57:13.394Z,33.60
2019-01-08T07:59:41.102Z,33.60
2019-01-08T08:02:08.892Z,33.50
2019-01-08T08:04:36.602Z,33.60
2019-01-08T08:07:04.275Z,33.50
2019-01-08T08:09:31.956Z,33.60
2019-01-08T08:11:59.625Z,33.60
2019-01-08T08:14:27.288Z,33.60
2019-01-08T08:16:54.880Z,33.00
2019-01-08T08:19:23.551Z,33.60
2019-01-08T08:21:51.173Z,33.60
2019-01-08T08:24:18.830Z,33.30
2019-01-08T08:26:46.494Z,33.60
2019-01-08T08:29:14.136Z,33.10
2019-01-08T08:31:41.804Z,33.20
2019-01-08T08:34:09.543Z,32.90
2019-01-08T08:36:37.156Z,33.10
2019-01-08T08:39:05.181Z,33.10
2019-01-08T08:41:32.789Z,33.40
2019-01-08T08:44:00.426Z,33.10
2019-01-08T08:46:28.196Z,33.20
2019-01-08T08:48:55.889Z,33.20
2019-01-08T08:51:23.577Z,33.40
2019-01-08T08:53:52.730Z,33.20
2019-01-08T08:56:20.527Z,33.30
2019-01-08T08:58:48.200Z,33.30
2019-01-08T09:01:15.871Z,33.30
2019-01-08T09:03:43.520Z,33.20
2019-01-08T09:06:11.237Z,33.30
2019-01-08T09:08:38.959Z,33.30
2019-01-08T09:11:06.583Z,33.20
2019-01-08T09:13:34.217Z,33.10
2019-01-08T09:16:01.967Z,33.10
2019-01-08T09:18:29.651Z,33.10
2019-01-08T09:20:57.317Z,33.10
2019-01-08T09:23:24.995Z,33.10
2019-01-08T09:25:52.617Z,33.00
2019-01-08T09:28:20.237Z,33.50
2019-01-08T09:30:47.957Z,33.30
2019-01-08T09:33:15.624Z,33.10
2019-01-08T09:35:43.291Z,33.10
2019-01-08T09:38:11.057Z,33.00
2019-01-08T09:40:41.534Z,33.00
2019-01-08T09:43:09.142Z,33.50
2019-01-08T09:45:36.879Z,32.70
2019-01-08T09:48:04.501Z,32.70
2019-01-08T09:50:32.189Z,32.70
2019-01-08T09:52:59.947Z,32.60
2019-01-08T09:55:27.571Z,32.40
2019-01-08T09:57:55.221Z,33.20
2019-01-08T10:00:22.979Z,32.30
2019-01-08T10:02:50.658Z,32.50
2019-01-08T10:05:18.266Z,32.50
2019-01-08T10:07:45.984Z,32.30
2019-01-08T10:10:13.604Z,32.40
2019-01-08T10:12:41.247Z,32.20
2019-01-08T10:15:08.969Z,32.20
2019-01-08T10:17:36.684Z,32.60
2019-01-08T10:20:05.475Z,32.30
2019-01-08T10:22:33.171Z,32.40
2019-01-08T10:25:00.829Z,32.30
2019-01-08T10:27:28.471Z,32.10
2019-01-08T10:29:57.050Z,32.30
2019-01-08T10:32:24.774Z,32.10
2019-01-08T10:34:52.415Z,32.30
2019-01-08T10:37:20.124Z,32.30
2019-01-08T10:39:47.749Z,32.20
2019-01-08T10:42:15.409Z,32.10
2019-01-08T10:44:43.156Z,32.20
2019-01-08T10:47:10.868Z,32.20
2019-01-08T10:49:38.528Z,32.10
2019-01-08T10:52:06.176Z,32.00
2019-01-08T10:54:33.770Z,32.00
2019-01-08T10:57:01.417Z,32.00
2019-01-08T10:59:29.052Z,32.10
2019-01-08T11:01:56.695Z,31.90
2019-01-08T11:04:24.383Z,31.90
2019-01-08T11:06:52.085Z,32.00
2019-01-08T11:09:19.783Z,31.90
2019-01-08T11:11:47.925Z,32.10
2019-01-08T11:14:15.513Z,32.00
2019-01-08T11:16:43.191Z,31.90
2019-01-08T11:19:10.886Z,32.00
2019-01-08T11:21:38.601Z,32.00
2019-01-08T11:24:06.310Z,32.00
2019-01-08T11:26:33.922Z,32.00
2019-01-08T11:29:01.570Z,31.90
2019-01-08T11:31:29.359Z,31.90
2019-01-08T11:33:57.019Z,31.90
2019-01-08T11:36:24.711Z,31.90
2019-01-08T11:38:52.452Z,31.80
2019-01-08T11:41:20.053Z,31.90
2019-01-08T11:43:47.680Z,31.80
2019-01-08T11:46:15.333Z,31.80
2019-01-08T11:48:42.996Z,31.90
2019-01-08T11:51:10.677Z,31.90
2019-01-08T11:53:38.405Z,31.80
2019-01-08T11:56:06.104Z,31.80
2019-01-08T11:58:33.767Z,31.80
2019-01-08T12:01:01.429Z,31.70
2019-01-08T12:03:29.079Z,31.70
2019-01-08T12:05:57.439Z,31.70
2019-01-08T12:08:25.185Z,31.60
2019-01-08T12:10:52.837Z,31.70
2019-01-08T12:13:20.466Z,31.70
2019-01-08T12:15:48.161Z,31.40
2019-01-08T12:18:15.900Z,31.50
2019-01-08T12:20:43.530Z,31.50
2019-01-08T12:23:11.166Z,31.60
2019-01-08T12:25:38.936Z,31.50
2019-01-08T12:28:06.611Z,31.50
2019-01-08T12:30:34.256Z,31.40
2019-01-08T12:33:02.062Z,31.30
2019-01-08T12:35:29.809Z,31.20
2019-01-08T12:37:57.478Z,31.40
2019-01-08T12:40:25.204Z,31.30
2019-01-08T12:42:52.823Z,31.40
2019-01-08T12:45:20.486Z,31.40
2019-01-08T12:47:48.145Z,31.30
2019-01-08T12:50:15.807Z,31.30
2019-01-08T12:52:43.412Z,31.30
2019-01-08T12:55:13.010Z,31.20
2019-01-08T12:57:40.467Z,31.10
2019-01-08T13:00:09.285Z,31.10
2019-01-08T13:02:37.007Z,31.20
2019-01-08T13:05:05.346Z,31.10
2019-01-08T13:07:33.016Z,31.20
2019-01-08T13:10:00.697Z,31.00
2019-01-08T13:12:28.304Z,30.90
2019-01-08T13:14:55.930Z,30.90
2019-01-08T13:17:23.848Z,30.90
2019-01-08T13:19:51.614Z,30.80
2019-01-08T13:22:19.264Z,31.10
2019-01-08T13:24:46.851Z,30.90
2019-01-08T13:27:14.463Z,31.00
2019-01-08T13:29:42.138Z,31.40
2019-01-08T13:32:09.848Z,30.80
2019-01-08T13:34:37.506Z,31.00
2019-01-08T13:37:05.210Z,31.00
2019-01-08T13:39:32.887Z,31.30
2019-01-08T13:42:01.386Z,30.60
2019-01-08T13:44:29.528Z,30.70
2019-01-08T13:47:00.495Z,30.90
2019-01-08T13:49:28.273Z,30.70
2019-01-08T13:51:55.998Z,30.80
2019-01-08T13:54:23.900Z,31.10
2019-01-08T13:56:51.962Z,31.20
2019-01-08T13:59:19.944Z,31.20
2019-01-08T14:01:47.626Z,31.30
2019-01-08T14:04:15.276Z,31.30
2019-01-08T14:06:42.934Z,31.10
2019-01-08T14:09:10.542Z,31.20
2019-01-08T14:11:44.568Z,31.20
2019-01-08T14:14:12.306Z,31.20
2019-01-08T14:16:39.994Z,31.40
2019-01-08T14:19:07.682Z,31.80
2019-01-08T14:21:35.430Z,32.10
2019-01-08T14:24:03.589Z,32.50
2019-01-08T14:26:31.531Z,32.30
2019-01-08T14:28:59.215Z,32.40
2019-01-08T14:31:26.971Z,32.40
2019-01-08T14:33:54.690Z,32.50
2019-01-08T14:36:22.359Z,32.60
2019-01-08T14:38:50.087Z,32.50
2019-01-08T14:41:17.768Z,32.40
2019-01-08T14:43:45.475Z,32.40
2019-01-08T14:46:13.223Z,32.50
2019-01-08T14:48:40.900Z,32.30
2019-01-08T14:51:12.724Z,32.70
2019-01-08T14:53:41.649Z,32.80
2019-01-08T14:56:09.369Z,32.80
2019-01-08T14:58:37.061Z,32.80
2019-01-08T15:01:04.977Z,32.50
2019-01-08T15:03:39.669Z,32.70
2019-01-08T15:06:07.391Z,32.70
2019-01-08T15:08:35.058Z,32.50
2019-01-08T15:11:02.675Z,32.40
2019-01-08T15:13:47.659Z,32.50
2019-01-08T15:16:15.279Z,32.50
2019-01-08T15:18:42.925Z,32.40
2019-01-08T15:21:14.087Z,32.40
2019-01-08T15:23:41.858Z,32.30
2019-01-08T15:26:09.533Z,32.30
2019-01-08T15:28:37.295Z,32.60
2019-01-08T15:31:04.886Z,32.30
2019-01-08T15:33:32.469Z,32.20
2019-01-08T15:36:00.152Z,32.10
2019-01-08T15:38:29.582Z,32.20
2019-01-08T15:40:57.274Z,32.10
2019-01-08T15:43:25.007Z,31.90
2019-01-08T15:45:52.618Z,32.50
2019-01-08T15:48:25.983Z,32.10
2019-01-08T15:50:53.645Z,32.00
2019-01-08T15:53:21.344Z,31.90
2019-01-08T15:55:49.139Z,31.80
2019-01-08T15:58:17.113Z,31.80
2019-01-08T16:00:46.609Z,31.80
2019-01-08T16:03:14.323Z,31.70
2019-01-08T16:05:43.362Z,31.80
2019-01-08T16:08:15.677Z,31.70
2019-01-08T16:10:42.368Z,31.60
2019-01-08T16:13:16.962Z,31.80
2019-01-08T16:15:44.764Z,31.60
2019-01-08T16:18:12.373Z,31.60
2019-01-08T16:20:40.274Z,31.70
2019-01-08T16:23:08.064Z,31.70
2019-01-08T16:25:37.475Z,31.60
2019-01-08T16:28:05.246Z,31.60
2019-01-08T16:30:32.929Z,31.60
2019-01-08T16:33:00.579Z,31.60
2019-01-08T16:35:28.261Z,31.40
2019-01-08T16:37:55.845Z,31.70
2019-01-08T16:40:23.932Z,31.50
2019-01-08T16:42:51.657Z,31.60
2019-01-08T16:45:23.282Z,31.60
2019-01-08T16:47:50.967Z,31.50
2019-01-08T16:50:22.380Z,31.50
2019-01-08T16:52:50.025Z,31.40
2019-01-08T16:55:17.757Z,31.40
2019-01-08T16:57:50.754Z,31.50
2019-01-08T17:00:18.406Z,31.40
2019-01-08T17:02:46.109Z,31.40
2019-01-08T17:05:21.607Z,31.10
2019-01-08T17:07:49.315Z,31.10
2019-01-08T17:10:16.942Z,31.40
2019-01-08T17:12:44.542Z,31.60
2019-01-08T17:15:12.229Z,31.40
2019-01-08T17:17:39.858Z,31.70
2019-01-08T17:20:07.681Z,31.80
2019-01-08T17:22:35.405Z,32.00
2019-01-08T17:25:03.390Z,32.20
2019-01-08T17:27:31.060Z,32.10
2019-01-08T17:29:58.711Z,31.90
2019-01-08T17:32:26.384Z,31.40
2019-01-08T17:34:53.976Z,31.30
2019-01-08T17:37:21.625Z,31.20
2019-01-08T17:39:53.732Z,31.30
2019-01-08T17:42:21.497Z,31.20
2019-01-08T17:44:49.133Z,31.20
2019-01-08T17:47:16.773Z,31.10
2019-01-08T17:49:44.522Z,31.20
2019-01-08T17:52:12.207Z,31.20
2019-01-08T17:54:39.839Z,31.40
2019-01-08T17:57:07.540Z,31.40
2019-01-08T17:59:35.391Z,31.60
2019-01-08T18:02:03.239Z,31.80
2019-01-08T18:04:30.837Z,31.60
2019-01-08T18:06:58.459Z,32.00
2019-01-08T18:09:29.942Z,32.00
2019-01-08T18:12:03.709Z,32.20
2019-01-08T18:14:40.587Z,32.40
2019-01-08T18:17:10.275Z,32.50
2019-01-08T18:19:44.134Z,32.70
2019-01-08T18:22:11.790Z,32.50
2019-01-08T18:24:42.064Z,33.20
2019-01-08T18:27:09.921Z,33.70
2019-01-08T18:29:40.907Z,33.80
2019-01-08T18:32:10.261Z,33.70
2019-01-08T18:34:37.976Z,33.70
2019-01-08T18:37:05.654Z,33.80
2019-01-08T18:39:38.922Z,33.80
2019-01-08T18:42:08.185Z,33.70
2019-01-08T18:44:36.010Z,33.80
2019-01-08T18:47:03.733Z,33.70
2019-01-08T18:49:31.470Z,33.70
2019-01-08T18:51:59.204Z,33.70
2019-01-08T18:54:28.198Z,33.60
2019-01-08T18:56:55.929Z,33.70
2019-01-08T18:59:23.617Z,33.70
2019-01-08T19:01:51.262Z,33.70
2019-01-08T19:04:19.112Z,33.70
2019-01-08T19:06:46.872Z,33.70
2019-01-08T19:09:24.833Z,33.70
2019-01-08T19:11:52.858Z,33.70
2019-01-08T19:14:21.916Z,34.40
2019-01-08T19:16:49.620Z,33.60
2019-01-08T19:19:17.288Z,33.70
2019-01-08T19:21:44.906Z,33.60
2019-01-08T19:24:12.685Z,33.60
2019-01-08T19:26:40.574Z,33.60
2019-01-08T19:29:08.312Z,33.60
2019-01-08T19:31:36.037Z,33.60
2019-01-08T19:34:08.964Z,33.60
2019-01-08T19:36:33.048Z,33.60
2019-01-08T19:39:00.809Z,33.60
2019-01-08T19:41:28.549Z,33.60
2019-01-08T19:43:56.225Z,33.60
2019-01-08T19:46:23.828Z,33.60
2019-01-08T19:48:51.728Z,33.60
2019-01-08T19:51:19.817Z,33.60
2019-01-08T19:53:47.398Z,33.60
2019-01-08T19:56:15.183Z,33.60
2019-01-08T19:58:43.057Z,33.60
2019-01-08T20:01:10.928Z,33.60
2019-01-08T20:03:38.724Z,33.60
2019-01-08T20:06:06.667Z,33.60
2019-01-08T20:08:34.529Z,33.60
2019-01-08T20:11:02.308Z,33.70
2019-01-08T20:13:30.246Z,33.60
2019-01-08T20:15:57.942Z,33.60
2019-01-08T20:18:25.685Z,34.40
2019-01-08T20:20:53.352Z,34.20
2019-01-08T20:23:21.054Z,34.50
2019-01-08T20:25:48.828Z,34.80
2019-01-08T20:28:16.450Z,34.70
2019-01-08T20:30:44.258Z,34.70
2019-01-08T20:33:11.988Z,34.70
2019-01-08T20:35:39.787Z,34.70
2019-01-08T20:38:07.398Z,34.80
2019-01-08T20:40:37.023Z,34.90
2019-01-08T20:43:04.395Z,35.00
2019-01-08T20:45:32.077Z,35.00
2019-01-08T20:47:59.762Z,35.10
2019-01-08T20:50:27.491Z,35.10
2019-01-08T20:52:55.172Z,35.00
2019-01-08T20:55:22.916Z,35.10
2019-01-08T20:57:50.643Z,35.50
2019-01-08T21:00:18.400Z,35.40
2019-01-08T21:02:47.050Z,35.50
2019-01-08T21:05:14.695Z,35.60
2019-01-08T21:07:42.335Z,35.40
2019-01-08T21:10:10.054Z,35.70
2019-01-08T21:12:37.709Z,35.60
2019-01-08T21:15:05.548Z,35.30
2019-01-08T21:17:33.205Z,35.30
2019-01-08T21:20:00.944Z,35.10
2019-01-08T21:22:28.686Z,35.00
2019-01-08T21:24:56.408Z,35.10
2019-01-08T21:27:24.103Z,35.00
2019-01-08T21:29:51.817Z,34.90
2019-01-08T21:32:19.539Z,34.90
2019-01-08T21:34:47.257Z,35.00
2019-01-08T21:37:14.895Z,34.80
2019-01-08T21:39:44.894Z,35.00
2019-01-08T21:42:12.728Z,34.90
2019-01-08T21:44:40.355Z,34.90
2019-01-08T21:47:08.093Z,34.90
2019-01-08T21:49:35.711Z,34.90
2019-01-08T21:52:03.467Z,35.10
2019-01-08T21:54:31.287Z,35.10
2019-01-08T21:56:58.978Z,34.90
2019-01-08T21:59:26.631Z,35.00
2019-01-08T22:01:54.242Z,35.10
2019-01-08T22:04:21.965Z,35.00
2019-01-08T22:06:49.743Z,35.00
2019-01-08T22:09:17.469Z,34.90
2019-01-08T22:11:45.207Z,34.90
2019-01-08T22:14:12.890Z,34.90
2019-01-08T22:16:40.797Z,35.00
2019-01-08T22:19:08.377Z,35.00
2019-01-08T22:21:36.109Z,35.00
2019-01-08T22:24:03.739Z,34.90
2019-01-08T22:26:31.358Z,35.00
2019-01-08T22:29:00.720Z,35.00
2019-01-08T22:31:28.408Z,34.90
2019-01-08T22:33:56.069Z,34.90
2019-01-08T22:36:23.695Z,34.90
2019-01-08T22:38:51.423Z,34.80
2019-01-08T22:41:19.037Z,35.10
2019-01-08T22:43:46.643Z,34.90
2019-01-08T22:46:14.487Z,35.00
2019-01-08T22:48:44.473Z,34.90
2019-01-08T22:51:12.104Z,34.90
2019-01-08T22:53:39.861Z,35.00
2019-01-08T22:56:07.553Z,34.90
2019-01-08T22:58:35.316Z,35.30
2019-01-08T23:01:04.997Z,35.10
2019-01-08T23:03:32.639Z,35.20
2019-01-08T23:06:00.472Z,35.00
2019-01-08T23:08:28.132Z,34.90
2019-01-08T23:10:55.810Z,35.10
2019-01-08T23:13:23.543Z,35.00
2019-01-08T23:15:51.230Z,35.10
2019-01-08T23:18:19.025Z,34.90
2019-01-08T23:20:49.738Z,35.50
2019-01-08T23:23:17.428Z,34.90
2019-01-08T23:25:45.196Z,34.90
2019-01-08T23:28:17.889Z,34.90
2019-01-08T23:30:45.365Z,35.10
2019-01-08T23:33:13.035Z,34.80
2019-01-08T23:35:40.773Z,34.90
2019-01-08T23:38:10.229Z,34.80
2019-01-08T23:40:39.176Z,34.90
2019-01-08T23:43:06.972Z,34.80
2019-01-08T23:45:34.703Z,34.80
2019-01-08T23:48:02.410Z,34.90
2019-01-08T23:50:30.119Z,34.90
2019-01-08T23:53:07.624Z,34.90
2019-01-08T23:55:36.842Z,34.80
2019-01-08T23:58:04.619Z,34.80
